sensor_id;sensor_type;location;lat;lon;timestamp;pressure;altitude;pressure_sealevel;temperature;humidity
63652;BME280;49801;37.536;-122.304;2022-11-03T00:00:21;101778.22;;;12.29;55.83
63652;BME280;49801;37.536;-122.304;2022-11-03T00:00:47;101779.06;;;12.30;55.58
63652;BME280;49801;37.536;-122.304;2022-11-03T00:01:13;101781.09;;;12.28;55.86
63652;BME280;49801;37.536;-122.304;2022-11-03T00:01:42;101777.50;;;12.27;56.10
63652;BME280;49801;37.536;-122.304;2022-11-03T00:02:08;101781.69;;;12.22;55.94
63652;BME280;49801;37.536;-122.304;2022-11-03T00:02:34;101778.84;;;12.23;55.60
63652;BME280;49801;37.536;-122.304;2022-11-03T00:03:00;101781.84;;;12.20;55.78
63652;BME280;49801;37.536;-122.304;2022-11-03T00:03:26;101780.03;;;12.21;55.98
63652;BME280;49801;37.536;-122.304;2022-11-03T00:03:52;101779.69;;;12.24;56.12
63652;BME280;49801;37.536;-122.304;2022-11-03T00:04:18;101790.53;;;12.24;56.04
63652;BME280;49801;37.536;-122.304;2022-11-03T00:04:44;101780.03;;;12.21;56.14
63652;BME280;49801;37.536;-122.304;2022-11-03T00:05:10;101775.75;;;12.18;56.49
63652;BME280;49801;37.536;-122.304;2022-11-03T00:05:54;101782.34;;;12.15;56.94
63652;BME280;49801;37.536;-122.304;2022-11-03T00:06:29;101784.34;;;12.13;56.76
63652;BME280;49801;37.536;-122.304;2022-11-03T00:06:55;101786.38;;;12.11;56.95
63652;BME280;49801;37.536;-122.304;2022-11-03T00:07:21;101778.53;;;12.08;56.98
63652;BME280;49801;37.536;-122.304;2022-11-03T00:07:47;101780.94;;;12.11;56.75
63652;BME280;49801;37.536;-122.304;2022-11-03T00:08:12;101781.78;;;12.12;56.97
63652;BME280;49801;37.536;-122.304;2022-11-03T00:08:39;101780.94;;;12.11;57.09
63652;BME280;49801;37.536;-122.304;2022-11-03T00:09:06;101782.66;;;12.12;57.05
63652;BME280;49801;37.536;-122.304;2022-11-03T00:09:33;101774.66;;;12.11;57.13
63652;BME280;49801;37.536;-122.304;2022-11-03T00:09:58;101783.81;;;12.10;56.99
63652;BME280;49801;37.536;-122.304;2022-11-03T00:10:24;101779.56;;;12.07;57.00
63652;BME280;49801;37.536;-122.304;2022-11-03T00:10:50;101774.44;;;12.04;57.04
63652;BME280;49801;37.536;-122.304;2022-11-03T00:11:15;101783.28;;;12.06;57.28
63652;BME280;49801;37.536;-122.304;2022-11-03T00:11:43;101783.44;;;12.05;57.36
63652;BME280;49801;37.536;-122.304;2022-11-03T00:12:09;101786.31;;;12.03;57.27
63652;BME280;49801;37.536;-122.304;2022-11-03T00:12:35;101787.63;;;11.99;57.51
63652;BME280;49801;37.536;-122.304;2022-11-03T00:13:00;101787.34;;;12.02;57.49
63652;BME280;49801;37.536;-122.304;2022-11-03T00:13:26;101784.63;;;12.02;57.44
63652;BME280;49801;37.536;-122.304;2022-11-03T00:13:52;101780.19;;;12.01;57.57
63652;BME280;49801;37.536;-122.304;2022-11-03T00:14:18;101779.88;;;12.04;57.75
63652;BME280;49801;37.536;-122.304;2022-11-03T00:14:44;101775.28;;;12.05;57.74
63652;BME280;49801;37.536;-122.304;2022-11-03T00:15:10;101780.72;;;12.05;57.70
63652;BME280;49801;37.536;-122.304;2022-11-03T00:15:35;101783.44;;;12.05;57.80
63652;BME280;49801;37.536;-122.304;2022-11-03T00:16:01;101777.31;;;12.03;58.12
63652;BME280;49801;37.536;-122.304;2022-11-03T00:16:27;101776.78;;;11.99;58.09
63652;BME280;49801;37.536;-122.304;2022-11-03T00:16:53;101787.63;;;11.99;58.28
63652;BME280;49801;37.536;-122.304;2022-11-03T00:17:19;101775.06;;;11.98;58.14
63652;BME280;49801;37.536;-122.304;2022-11-03T00:17:45;101777.09;;;11.96;57.97
63652;BME280;49801;37.536;-122.304;2022-11-03T00:18:10;101782.50;;;11.96;57.97
63652;BME280;49801;37.536;-122.304;2022-11-03T00:18:37;101777.09;;;11.96;58.11
63652;BME280;49801;37.536;-122.304;2022-11-03T00:19:03;101779.41;;;11.91;58.29
63652;BME280;49801;37.536;-122.304;2022-11-03T00:19:29;101781.25;;;11.90;58.13
63652;BME280;49801;37.536;-122.304;2022-11-03T00:19:54;101783.97;;;11.90;57.96
63652;BME280;49801;37.536;-122.304;2022-11-03T00:20:20;101774.00;;;11.91;57.95
63652;BME280;49801;37.536;-122.304;2022-11-03T00:20:54;101783.84;;;11.92;58.05
63652;BME280;49801;37.536;-122.304;2022-11-03T00:21:20;101783.13;;;11.90;58.39
63652;BME280;49801;37.536;-122.304;2022-11-03T00:21:46;101778.31;;;11.83;58.94
63652;BME280;49801;37.536;-122.304;2022-11-03T00:22:12;101778.31;;;11.83;59.05
63652;BME280;49801;37.536;-122.304;2022-11-03T00:22:37;101782.03;;;11.82;59.09
63652;BME280;49801;37.536;-122.304;2022-11-03T00:23:03;101778.63;;;11.80;59.29
63652;BME280;49801;37.536;-122.304;2022-11-03T00:23:30;101773.50;;;11.77;59.34
63652;BME280;49801;37.536;-122.304;2022-11-03T00:23:56;101787.25;;;11.76;59.25
63652;BME280;49801;37.536;-122.304;2022-11-03T00:24:22;101775.34;;;11.77;59.19
63652;BME280;49801;37.536;-122.304;2022-11-03T00:24:48;101784.53;;;11.76;59.36
63652;BME280;49801;37.536;-122.304;2022-11-03T00:25:14;101783.81;;;11.74;59.63
63652;BME280;49801;37.536;-122.304;2022-11-03T00:25:40;101784.97;;;11.71;59.54
63652;BME280;49801;37.536;-122.304;2022-11-03T00:26:13;101782.28;;;11.71;59.29
63652;BME280;49801;37.536;-122.304;2022-11-03T00:26:39;101784.13;;;11.71;59.38
63652;BME280;49801;37.536;-122.304;2022-11-03T00:27:05;101786.66;;;11.72;59.74
63652;BME280;49801;37.536;-122.304;2022-11-03T00:27:30;101778.88;;;11.69;59.78
63652;BME280;49801;37.536;-122.304;2022-11-03T00:27:56;101774.59;;;11.67;59.52
63652;BME280;49801;37.536;-122.304;2022-11-03T00:28:22;101781.03;;;11.66;59.70
63652;BME280;49801;37.536;-122.304;2022-11-03T00:28:49;101780.84;;;11.67;59.61
63652;BME280;49801;37.536;-122.304;2022-11-03T00:29:15;101782.56;;;11.68;59.61
63652;BME280;49801;37.536;-122.304;2022-11-03T00:29:40;101784.59;;;11.66;59.72
63652;BME280;49801;37.536;-122.304;2022-11-03T00:30:06;101781.19;;;11.64;60.05
63652;BME280;49801;37.536;-122.304;2022-11-03T00:30:32;101778.47;;;11.64;59.77
63652;BME280;49801;37.536;-122.304;2022-11-03T00:30:59;101771.34;;;11.63;59.91
63652;BME280;49801;37.536;-122.304;2022-11-03T00:31:29;101776.75;;;11.63;60.12
63652;BME280;49801;37.536;-122.304;2022-11-03T00:31:55;101780.78;;;11.59;59.89
63652;BME280;49801;37.536;-122.304;2022-11-03T00:32:24;101780.78;;;11.59;60.11
63652;BME280;49801;37.536;-122.304;2022-11-03T00:32:49;101775.38;;;11.59;60.09
63652;BME280;49801;37.536;-122.304;2022-11-03T00:33:15;101777.06;;;11.60;60.39
63652;BME280;49801;37.536;-122.304;2022-11-03T00:33:41;101780.78;;;11.59;60.46
63652;BME280;49801;37.536;-122.304;2022-11-03T00:34:07;101786.53;;;11.56;60.48
63652;BME280;49801;37.536;-122.304;2022-11-03T00:34:33;101781.09;;;11.56;60.53
63652;BME280;49801;37.536;-122.304;2022-11-03T00:35:00;101775.97;;;11.53;60.46
63652;BME280;49801;37.536;-122.304;2022-11-03T00:35:25;101774.25;;;11.52;60.96
63652;BME280;49801;37.536;-122.304;2022-11-03T00:35:58;101776.28;;;11.50;61.08
63652;BME280;49801;37.536;-122.304;2022-11-03T00:36:25;101779.28;;;11.47;60.95
63652;BME280;49801;37.536;-122.304;2022-11-03T00:36:51;101778.59;;;11.44;60.89
63652;BME280;49801;37.536;-122.304;2022-11-03T00:37:16;101781.16;;;11.46;60.88
63652;BME280;49801;37.536;-122.304;2022-11-03T00:37:42;101778.59;;;11.44;61.12
63652;BME280;49801;37.536;-122.304;2022-11-03T00:38:08;101776.19;;;11.41;61.08
63652;BME280;49801;37.536;-122.304;2022-11-03T00:38:34;101772.78;;;11.39;61.23
63652;BME280;49801;37.536;-122.304;2022-11-03T00:39:01;101774.66;;;11.39;61.33
63652;BME280;49801;37.536;-122.304;2022-11-03T00:39:27;101772.91;;;11.38;61.44
63652;BME280;49801;37.536;-122.304;2022-11-03T00:39:53;101771.78;;;11.40;61.25
63652;BME280;49801;37.536;-122.304;2022-11-03T00:40:18;101767.19;;;11.41;61.36
63652;BME280;49801;37.536;-122.304;2022-11-03T00:40:44;101770.06;;;11.39;61.81
63652;BME280;49801;37.536;-122.304;2022-11-03T00:41:10;101768.66;;;11.35;61.70
63652;BME280;49801;37.536;-122.304;2022-11-03T00:41:37;101767.69;;;11.36;62.28
63652;BME280;49801;37.536;-122.304;2022-11-03T00:42:02;101764.97;;;11.36;61.89
63652;BME280;49801;37.536;-122.304;2022-11-03T00:42:28;101764.97;;;11.36;62.07
63652;BME280;49801;37.536;-122.304;2022-11-03T00:42:54;101764.97;;;11.36;61.90
63652;BME280;49801;37.536;-122.304;2022-11-03T00:43:21;101771.38;;;11.35;62.24
63652;BME280;49801;37.536;-122.304;2022-11-03T00:43:47;101763.41;;;11.34;62.21
63652;BME280;49801;37.536;-122.304;2022-11-03T00:44:13;101755.25;;;11.34;61.95
63652;BME280;49801;37.536;-122.304;2022-11-03T00:44:39;101756.09;;;11.34;62.07
63652;BME280;49801;37.536;-122.304;2022-11-03T00:45:05;101759.84;;;11.33;62.25
63652;BME280;49801;37.536;-122.304;2022-11-03T00:45:31;101756.44;;;11.31;62.51
63652;BME280;49801;37.536;-122.304;2022-11-03T00:45:57;101760.16;;;11.30;62.38
63652;BME280;49801;37.536;-122.304;2022-11-03T00:46:23;101756.59;;;11.30;62.39
63652;BME280;49801;37.536;-122.304;2022-11-03T00:46:49;101755.72;;;11.29;62.62
63652;BME280;49801;37.536;-122.304;2022-11-03T00:47:15;101757.03;;;11.25;62.63
63652;BME280;49801;37.536;-122.304;2022-11-03T00:47:41;101754.47;;;11.23;62.88
63652;BME280;49801;37.536;-122.304;2022-11-03T00:48:26;101751.91;;;11.22;62.88
63652;BME280;49801;37.536;-122.304;2022-11-03T00:48:55;101751.91;;;11.22;62.93
63652;BME280;49801;37.536;-122.304;2022-11-03T00:49:20;101753.94;;;11.20;62.97
63652;BME280;49801;37.536;-122.304;2022-11-03T00:49:46;101762.22;;;11.18;62.85
63652;BME280;49801;37.536;-122.304;2022-11-03T00:50:12;101750.53;;;11.18;63.46
63652;BME280;49801;37.536;-122.304;2022-11-03T00:50:38;101756.25;;;11.15;63.33
63652;BME280;49801;37.536;-122.304;2022-11-03T00:51:33;101752.97;;;11.11;63.34
63652;BME280;49801;37.536;-122.304;2022-11-03T00:52:01;101754.28;;;11.07;63.36
63652;BME280;49801;37.536;-122.304;2022-11-03T00:52:27;101760.03;;;11.04;63.40
63652;BME280;49801;37.536;-122.304;2022-11-03T00:52:53;101757.47;;;11.02;63.49
63652;BME280;49801;37.536;-122.304;2022-11-03T00:53:19;101760.88;;;11.04;63.44
63652;BME280;49801;37.536;-122.304;2022-11-03T00:53:45;101760.88;;;11.04;63.49
63652;BME280;49801;37.536;-122.304;2022-11-03T00:54:11;101759.16;;;11.03;63.36
63652;BME280;49801;37.536;-122.304;2022-11-03T00:54:37;101764.56;;;11.03;63.22
63652;BME280;49801;37.536;-122.304;2022-11-03T00:55:03;101763.88;;;11.01;63.57
63652;BME280;49801;37.536;-122.304;2022-11-03T00:55:29;101757.47;;;11.02;63.92
63652;BME280;49801;37.536;-122.304;2022-11-03T00:55:55;101761.44;;;10.98;64.02
63652;BME280;49801;37.536;-122.304;2022-11-03T00:56:46;101763.19;;;10.99;63.65
63652;BME280;49801;37.536;-122.304;2022-11-03T00:57:12;101757.75;;;10.99;63.72
63652;BME280;49801;37.536;-122.304;2022-11-03T00:57:38;101764.16;;;10.98;63.76
63652;BME280;49801;37.536;-122.304;2022-11-03T00:58:03;101767.91;;;10.97;63.74
63652;BME280;49801;37.536;-122.304;2022-11-03T00:58:29;101760.06;;;10.94;63.69
63652;BME280;49801;37.536;-122.304;2022-11-03T00:58:56;101766.47;;;10.93;63.99
63652;BME280;49801;37.536;-122.304;2022-11-03T00:59:22;101761.06;;;10.93;63.93
63652;BME280;49801;37.536;-122.304;2022-11-03T00:59:48;101761.22;;;10.92;64.12
63652;BME280;49801;37.536;-122.304;2022-11-03T01:00:13;101757.78;;;10.89;64.08
63652;BME280;49801;37.536;-122.304;2022-11-03T01:00:39;101761.53;;;10.88;64.29
63652;BME280;49801;37.536;-122.304;2022-11-03T01:01:12;101755.06;;;10.89;64.16
63652;BME280;49801;37.536;-122.304;2022-11-03T01:01:39;101757.94;;;10.88;64.38
63652;BME280;49801;37.536;-122.304;2022-11-03T01:02:05;101774.38;;;10.86;64.43
63652;BME280;49801;37.536;-122.304;2022-11-03T01:02:31;101758.97;;;10.87;64.76
63652;BME280;49801;37.536;-122.304;2022-11-03T01:02:57;101769.78;;;10.87;64.82
63652;BME280;49801;37.536;-122.304;2022-11-03T01:03:22;101768.06;;;10.86;64.59
63652;BME280;49801;37.536;-122.304;2022-11-03T01:03:49;101767.22;;;10.85;64.81
63652;BME280;49801;37.536;-122.304;2022-11-03T01:04:34;101764.66;;;10.84;64.97
63652;BME280;49801;37.536;-122.304;2022-11-03T01:05:18;101777.22;;;10.85;64.86
63652;BME280;49801;37.536;-122.304;2022-11-03T01:06:06;101779.22;;;10.83;65.06
63652;BME280;49801;37.536;-122.304;2022-11-03T01:06:51;101768.69;;;10.80;65.19
63652;BME280;49801;37.536;-122.304;2022-11-03T01:07:18;101779.81;;;10.77;65.18
63652;BME280;49801;37.536;-122.304;2022-11-03T01:07:45;101779.81;;;10.77;65.62
63652;BME280;49801;37.536;-122.304;2022-11-03T01:08:11;101778.09;;;10.76;65.52
63652;BME280;49801;37.536;-122.304;2022-11-03T01:08:36;101778.09;;;10.76;65.53
63652;BME280;49801;37.536;-122.304;2022-11-03T01:09:02;101783.53;;;10.76;65.43
63652;BME280;49801;37.536;-122.304;2022-11-03T01:09:29;101786.22;;;10.76;65.45
63652;BME280;49801;37.536;-122.304;2022-11-03T01:09:55;101780.97;;;10.74;66.39
63652;BME280;49801;37.536;-122.304;2022-11-03T01:10:21;101780.41;;;10.70;66.70
63652;BME280;49801;37.536;-122.304;2022-11-03T01:10:47;101785.41;;;10.65;67.36
63652;BME280;49801;37.536;-122.304;2022-11-03T01:11:32;101777.56;;;10.62;67.98
63652;BME280;49801;37.536;-122.304;2022-11-03T01:12:36;101775.88;;;10.61;68.48
63652;BME280;49801;37.536;-122.304;2022-11-03T01:13:02;101781.31;;;10.61;68.67
63652;BME280;49801;37.536;-122.304;2022-11-03T01:13:28;101783.31;;;10.59;68.71
63652;BME280;49801;37.536;-122.304;2022-11-03T01:13:54;101781.59;;;10.58;68.97
63652;BME280;49801;37.536;-122.304;2022-11-03T01:14:20;101779.88;;;10.57;69.63
63652;BME280;49801;37.536;-122.304;2022-11-03T01:14:49;101783.59;;;10.56;69.66
63652;BME280;49801;37.536;-122.304;2022-11-03T01:15:16;101777.47;;;10.54;70.05
63652;BME280;49801;37.536;-122.304;2022-11-03T01:15:41;101783.88;;;10.53;70.32
63652;BME280;49801;37.536;-122.304;2022-11-03T01:16:07;101790.16;;;10.54;70.15
63652;BME280;49801;37.536;-122.304;2022-11-03T01:16:33;101786.59;;;10.53;70.45
63652;BME280;49801;37.536;-122.304;2022-11-03T01:16:59;101787.63;;;10.52;70.49
63652;BME280;49801;37.536;-122.304;2022-11-03T01:17:25;101788.59;;;10.51;70.77
63652;BME280;49801;37.536;-122.304;2022-11-03T01:17:51;101784.19;;;10.50;70.60
63652;BME280;49801;37.536;-122.304;2022-11-03T01:18:17;101792.16;;;10.51;70.55
63652;BME280;49801;37.536;-122.304;2022-11-03T01:18:43;101792.28;;;10.50;70.75
63652;BME280;49801;37.536;-122.304;2022-11-03T01:19:09;101787.63;;;10.52;70.70
63652;BME280;49801;37.536;-122.304;2022-11-03T01:19:34;101791.31;;;10.51;70.86
63652;BME280;49801;37.536;-122.304;2022-11-03T01:20:00;101793.16;;;10.50;70.77
63652;BME280;49801;37.536;-122.304;2022-11-03T01:20:26;101791.44;;;10.49;70.47
63652;BME280;49801;37.536;-122.304;2022-11-03T01:20:55;101788.19;;;10.46;71.13
63652;BME280;49801;37.536;-122.304;2022-11-03T01:21:21;101795.59;;;10.44;71.30
63652;BME280;49801;37.536;-122.304;2022-11-03T01:21:47;101799.31;;;10.43;71.29
63652;BME280;49801;37.536;-122.304;2022-11-03T01:22:13;101797.63;;;10.42;71.27
63652;BME280;49801;37.536;-122.304;2022-11-03T01:22:39;101803.88;;;10.42;71.54
63652;BME280;49801;37.536;-122.304;2022-11-03T01:23:05;101799.91;;;10.37;71.83
63652;BME280;49801;37.536;-122.304;2022-11-03T01:23:30;101796.47;;;10.35;71.97
63652;BME280;49801;37.536;-122.304;2022-11-03T01:23:57;101794.50;;;10.37;71.97
63652;BME280;49801;37.536;-122.304;2022-11-03T01:24:24;101794.78;;;10.34;72.17
63652;BME280;49801;37.536;-122.304;2022-11-03T01:24:50;101802.19;;;10.31;72.28
63652;BME280;49801;37.536;-122.304;2022-11-03T01:25:19;101797.47;;;10.34;72.30
63652;BME280;49801;37.536;-122.304;2022-11-03T01:25:44;101801.03;;;10.34;72.42
63652;BME280;49801;37.536;-122.304;2022-11-03T01:26:11;101802.03;;;10.33;72.70
63652;BME280;49801;37.536;-122.304;2022-11-03T01:26:37;101803.88;;;10.32;72.37
63652;BME280;49801;37.536;-122.304;2022-11-03T01:27:03;101798.47;;;10.32;72.49
63652;BME280;49801;37.536;-122.304;2022-11-03T01:27:29;101803.16;;;10.30;72.74
63652;BME280;49801;37.536;-122.304;2022-11-03T01:27:54;101805.84;;;10.30;72.56
63652;BME280;49801;37.536;-122.304;2022-11-03T01:28:20;101804.13;;;10.29;73.00
63652;BME280;49801;37.536;-122.304;2022-11-03T01:28:46;101802.88;;;10.24;73.07
63652;BME280;49801;37.536;-122.304;2022-11-03T01:29:12;101804.72;;;10.23;73.25
63652;BME280;49801;37.536;-122.304;2022-11-03T01:29:38;101801.00;;;10.24;73.27
63652;BME280;49801;37.536;-122.304;2022-11-03T01:30:04;101802.03;;;10.23;73.36
63652;BME280;49801;37.536;-122.304;2022-11-03T01:30:30;101798.63;;;10.21;73.07
63652;BME280;49801;37.536;-122.304;2022-11-03T01:31:00;101804.03;;;10.21;73.54
63652;BME280;49801;37.536;-122.304;2022-11-03T01:31:26;101801.31;;;10.21;73.29
63652;BME280;49801;37.536;-122.304;2022-11-03T01:31:53;101806.00;;;10.19;73.49
63652;BME280;49801;37.536;-122.304;2022-11-03T01:32:18;101807.84;;;10.19;73.29
63652;BME280;49801;37.536;-122.304;2022-11-03T01:32:44;101806.88;;;10.20;73.23
63652;BME280;49801;37.536;-122.304;2022-11-03T01:33:10;101805.28;;;10.17;73.33
63652;BME280;49801;37.536;-122.304;2022-11-03T01:33:36;101808.00;;;10.17;73.57
63652;BME280;49801;37.536;-122.304;2022-11-03T01:34:02;101809.03;;;10.16;73.52
63652;BME280;49801;37.536;-122.304;2022-11-03T01:34:27;101807.31;;;10.15;73.32
63652;BME280;49801;37.536;-122.304;2022-11-03T01:34:53;101812.72;;;10.15;73.68
63652;BME280;49801;37.536;-122.304;2022-11-03T01:35:19;101805.72;;;10.12;73.58
63652;BME280;49801;37.536;-122.304;2022-11-03T01:35:45;101806.88;;;10.10;73.74
63652;BME280;49801;37.536;-122.304;2022-11-03T01:36:11;101804.16;;;10.10;73.44
63652;BME280;49801;37.536;-122.304;2022-11-03T01:36:38;101812.28;;;10.10;73.52
63652;BME280;49801;37.536;-122.304;2022-11-03T01:37:03;101813.28;;;10.09;73.63
63652;BME280;49801;37.536;-122.304;2022-11-03T01:37:29;101805.31;;;10.07;73.56
63652;BME280;49801;37.536;-122.304;2022-11-03T01:37:55;101814.56;;;10.05;73.80
63652;BME280;49801;37.536;-122.304;2022-11-03T01:38:21;101808.16;;;10.06;73.38
63652;BME280;49801;37.536;-122.304;2022-11-03T01:38:47;101811.59;;;10.08;73.36
63652;BME280;49801;37.536;-122.304;2022-11-03T01:39:14;101810.13;;;10.04;73.05
63652;BME280;49801;37.536;-122.304;2022-11-03T01:39:40;101806.72;;;10.02;73.17
63652;BME280;49801;37.536;-122.304;2022-11-03T01:40:06;101802.34;;;10.01;72.90
63652;BME280;49801;37.536;-122.304;2022-11-03T01:40:31;101806.72;;;10.02;72.62
63652;BME280;49801;37.536;-122.304;2022-11-03T01:40:58;101812.13;;;10.02;72.58
63652;BME280;49801;37.536;-122.304;2022-11-03T01:41:24;101809.88;;;9.97;72.37
63652;BME280;49801;37.536;-122.304;2022-11-03T01:41:51;101803.31;;;10.00;72.20
63652;BME280;49801;37.536;-122.304;2022-11-03T01:42:17;101806.16;;;9.98;72.10
63652;BME280;49801;37.536;-122.304;2022-11-03T01:42:42;101805.31;;;9.98;72.07
63652;BME280;49801;37.536;-122.304;2022-11-03T01:43:18;101802.75;;;9.96;71.91
63652;BME280;49801;37.536;-122.304;2022-11-03T01:43:45;101809.88;;;9.97;71.92
63652;BME280;49801;37.536;-122.304;2022-11-03T01:44:38;101808.16;;;9.96;71.88
63652;BME280;49801;37.536;-122.304;2022-11-03T01:45:07;101812.72;;;9.95;71.96
63652;BME280;49801;37.536;-122.304;2022-11-03T01:45:33;101804.47;;;9.97;71.80
63652;BME280;49801;37.536;-122.304;2022-11-03T01:46:01;101811.00;;;9.94;72.08
63652;BME280;49801;37.536;-122.304;2022-11-03T01:46:28;101803.88;;;9.93;71.97
63652;BME280;49801;37.536;-122.304;2022-11-03T01:47:39;101804.91;;;9.92;72.30
63652;BME280;49801;37.536;-122.304;2022-11-03T01:47:40;101810.44;;;9.91;71.90
63652;BME280;49801;37.536;-122.304;2022-11-03T01:48:07;101812.16;;;9.92;72.10
63652;BME280;49801;37.536;-122.304;2022-11-03T01:48:33;101808.72;;;9.90;72.38
63652;BME280;49801;37.536;-122.304;2022-11-03T01:49:07;101808.72;;;9.90;72.50
63652;BME280;49801;37.536;-122.304;2022-11-03T01:49:42;101808.16;;;9.86;73.01
63652;BME280;49801;37.536;-122.304;2022-11-03T01:50:18;101817.56;;;9.82;73.23
63652;BME280;49801;37.536;-122.304;2022-11-03T01:50:44;101810.44;;;9.81;72.88
63652;BME280;49801;37.536;-122.304;2022-11-03T01:51:12;101819.25;;;9.83;72.99
63652;BME280;49801;37.536;-122.304;2022-11-03T01:51:38;101820.25;;;9.82;72.92
63652;BME280;49801;37.536;-122.304;2022-11-03T01:52:33;101817.56;;;9.82;72.81
63652;BME280;49801;37.536;-122.304;2022-11-03T01:53:02;101818.41;;;9.83;72.81
63652;BME280;49801;37.536;-122.304;2022-11-03T01:53:27;101822.13;;;9.82;72.65
63652;BME280;49801;37.536;-122.304;2022-11-03T01:53:54;101823.94;;;9.81;73.25
63652;BME280;49801;37.536;-122.304;2022-11-03T01:54:21;101829.38;;;9.81;72.90
63652;BME280;49801;37.536;-122.304;2022-11-03T01:54:50;101824.09;;;9.80;72.99
63652;BME280;49801;37.536;-122.304;2022-11-03T01:55:19;101826.94;;;9.78;72.67
63652;BME280;49801;37.536;-122.304;2022-11-03T01:55:46;101829.63;;;9.78;72.87
63652;BME280;49801;37.536;-122.304;2022-11-03T01:56:14;101830.66;;;9.77;72.68
63652;BME280;49801;37.536;-122.304;2022-11-03T01:56:41;101830.66;;;9.77;72.61
63652;BME280;49801;37.536;-122.304;2022-11-03T01:57:12;101827.09;;;9.76;72.69
63652;BME280;49801;37.536;-122.304;2022-11-03T01:57:40;101829.81;;;9.76;72.68
63652;BME280;49801;37.536;-122.304;2022-11-03T01:58:33;101828.22;;;9.74;72.45
63652;BME280;49801;37.536;-122.304;2022-11-03T01:59:02;101828.22;;;9.74;72.82
63652;BME280;49801;37.536;-122.304;2022-11-03T01:59:28;101831.78;;;9.74;72.17
63652;BME280;49801;37.536;-122.304;2022-11-03T01:59:53;101824.53;;;9.75;72.81
63652;BME280;49801;37.536;-122.304;2022-11-03T02:00:22;101823.78;;;9.73;72.43
63652;BME280;49801;37.536;-122.304;2022-11-03T02:00:49;101825.53;;;9.74;72.62
63652;BME280;49801;37.536;-122.304;2022-11-03T02:01:16;101823.78;;;9.73;72.32
63652;BME280;49801;37.536;-122.304;2022-11-03T02:01:43;101826.50;;;9.73;72.38
63652;BME280;49801;37.536;-122.304;2022-11-03T02:02:09;101822.09;;;9.72;72.36
63652;BME280;49801;37.536;-122.304;2022-11-03T02:02:35;101826.66;;;9.71;72.18
63652;BME280;49801;37.536;-122.304;2022-11-03T02:03:01;101823.38;;;9.68;72.53
63652;BME280;49801;37.536;-122.304;2022-11-03T02:03:30;101826.06;;;9.68;72.06
63652;BME280;49801;37.536;-122.304;2022-11-03T02:03:58;101824.09;;;9.70;72.37
63652;BME280;49801;37.536;-122.304;2022-11-03T02:04:28;101826.06;;;9.68;72.17
63652;BME280;49801;37.536;-122.304;2022-11-03T02:04:54;101826.06;;;9.68;72.08
63652;BME280;49801;37.536;-122.304;2022-11-03T02:05:23;101833.47;;;9.66;72.35
63652;BME280;49801;37.536;-122.304;2022-11-03T02:05:49;101828.06;;;9.66;72.25
63652;BME280;49801;37.536;-122.304;2022-11-03T02:06:17;101831.78;;;9.65;72.57
63652;BME280;49801;37.536;-122.304;2022-11-03T02:06:46;101834.50;;;9.65;72.36
63652;BME280;49801;37.536;-122.304;2022-11-03T02:07:28;101830.06;;;9.64;72.36
63652;BME280;49801;37.536;-122.304;2022-11-03T02:09:20;101832.47;;;9.57;72.11
63652;BME280;49801;37.536;-122.304;2022-11-03T02:09:46;101831.63;;;9.56;72.29
63652;BME280;49801;37.536;-122.304;2022-11-03T02:10:12;101843.41;;;9.55;72.30
63652;BME280;49801;37.536;-122.304;2022-11-03T02:10:38;101838.00;;;9.55;72.18
63652;BME280;49801;37.536;-122.304;2022-11-03T02:11:04;101837.16;;;9.55;72.00
63652;BME280;49801;37.536;-122.304;2022-11-03T02:11:50;101846.13;;;9.55;71.97
63652;BME280;49801;37.536;-122.304;2022-11-03T02:12:32;101840.72;;;9.55;72.35
63652;BME280;49801;37.536;-122.304;2022-11-03T02:12:59;101837.16;;;9.55;71.92
63652;BME280;49801;37.536;-122.304;2022-11-03T02:13:25;101838.00;;;9.55;71.94
63652;BME280;49801;37.536;-122.304;2022-11-03T02:13:51;101840.00;;;9.53;72.42
63652;BME280;49801;37.536;-122.304;2022-11-03T02:14:17;101848.25;;;9.52;72.48
63652;BME280;49801;37.536;-122.304;2022-11-03T02:14:44;101844.56;;;9.53;72.37
63652;BME280;49801;37.536;-122.304;2022-11-03T02:15:13;101840.00;;;9.53;72.41
63652;BME280;49801;37.536;-122.304;2022-11-03T02:15:40;101841.03;;;9.52;72.35
63652;BME280;49801;37.536;-122.304;2022-11-03T02:16:06;101847.41;;;9.51;72.13
63652;BME280;49801;37.536;-122.304;2022-11-03T02:16:32;101836.59;;;9.51;72.09
63652;BME280;49801;37.536;-122.304;2022-11-03T02:17:01;101837.44;;;9.52;72.30
63652;BME280;49801;37.536;-122.304;2022-11-03T02:17:28;101847.41;;;9.51;72.22
63652;BME280;49801;37.536;-122.304;2022-11-03T02:17:54;101847.53;;;9.50;72.13
63652;BME280;49801;37.536;-122.304;2022-11-03T02:18:22;101845.69;;;9.50;72.02
63652;BME280;49801;37.536;-122.304;2022-11-03T02:18:49;101842.28;;;9.48;72.70
63652;BME280;49801;37.536;-122.304;2022-11-03T02:20:06;101849.66;;;9.46;72.43
63652;BME280;49801;37.536;-122.304;2022-11-03T02:20:35;101845.97;;;9.47;72.44
63652;BME280;49801;37.536;-122.304;2022-11-03T02:21:04;101846.25;;;9.44;72.90
63652;BME280;49801;37.536;-122.304;2022-11-03T02:21:41;101844.53;;;9.43;72.82
63652;BME280;49801;37.536;-122.304;2022-11-03T02:24:22;101841.38;;;9.38;73.26
63652;BME280;49801;37.536;-122.304;2022-11-03T02:24:51;101848.50;;;9.39;73.56
63652;BME280;49801;37.536;-122.304;2022-11-03T02:26:01;101846.78;;;9.38;73.48